Time;durP1;ratioP1;P1;durP2;ratioP2;P2;SDS_P1;SDS_P2;PMS_P1;PMS_P2;Temp;Humidity;BMP_temperature;BMP_pressure;BME280_temperature;BME280_humidity;BME280_pressure;Samples;Min_cycle;Max_cycle;Signal;HPM_P1;HPM_P2
2023/04/26 00:00:20;;;;;;;0.00;0.00;;;3.20;93.70;;;;;;4923542;29;20059;-85
2023/04/26 00:02:48;;;;;;;0.10;0.00;;;3.20;93.70;;;;;;4893485;29;20049;-85
2023/04/26 00:05:15;;;;;;;0.00;0.00;;;3.20;92.80;;;;;;4924092;29;20075;-85
2023/04/26 00:07:42;;;;;;;0.00;0.00;;;3.20;92.90;;;;;;4923076;29;20147;-85
2023/04/26 00:10:09;;;;;;;0.15;0.05;;;3.20;93.00;;;;;;4923755;29;20488;-86
2023/04/26 00:12:39;;;;;;;0.10;0.00;;;3.20;93.50;;;;;;4923065;29;20504;-85
2023/04/26 00:15:08;;;;;;;0.00;0.00;;;3.20;93.50;;;;;;4939682;29;20384;-86
2023/04/26 00:17:37;;;;;;;0.60;0.08;;;3.20;93.00;;;;;;4923351;29;20058;-86
2023/04/26 00:20:05;;;;;;;0.00;0.00;;;3.80;93.40;;;;;;4923876;29;20051;-85
2023/04/26 00:22:31;;;;;;;0.00;0.00;;;3.20;92.40;;;;;;4923150;29;20134;-85
2023/04/26 00:24:57;;;;;;;0.00;0.00;;;3.20;93.50;;;;;;4923167;29;20090;-85
2023/04/26 00:27:25;;;;;;;0.00;0.00;;;3.50;93.10;;;;;;4891368;29;20062;-85
2023/04/26 00:29:51;;;;;;;0.10;0.00;;;3.40;93.10;;;;;;4938338;29;20055;-86
2023/04/26 00:32:17;;;;;;;0.08;0.00;;;3.10;93.20;;;;;;4907367;29;20058;-85
2023/04/26 00:34:47;;;;;;;0.00;0.00;;;3.10;93.30;;;;;;4922650;29;20087;-85
2023/04/26 00:37:13;;;;;;;0.10;0.00;;;3.10;94.20;;;;;;4939101;29;20113;-86
2023/04/26 00:39:39;;;;;;;0.00;0.00;;;3.10;94.80;;;;;;4922838;29;20047;-85
2023/04/26 00:42:05;;;;;;;0.00;0.00;;;3.00;94.10;;;;;;4923016;29;20365;-85
2023/04/26 00:44:30;;;;;;;0.00;0.00;;;3.00;94.40;;;;;;4922747;29;20051;-85
2023/04/26 00:46:56;;;;;;;11.50;0.88;;;3.30;93.60;;;;;;4938328;29;20492;-86
2023/04/26 00:49:25;;;;;;;0.00;0.00;;;3.00;95.00;;;;;;4922589;29;20048;-85
2023/04/26 00:51:54;;;;;;;0.20;0.17;;;3.00;95.50;;;;;;4939167;29;20058;-85
2023/04/26 00:54:21;;;;;;;0.10;0.10;;;3.10;95.40;;;;;;4907422;29;20043;-85
2023/04/26 00:56:50;;;;;;;0.20;0.00;;;3.10;94.70;;;;;;4922788;29;20055;-85
2023/04/26 00:59:16;;;;;;;0.00;0.00;;;3.60;95.60;;;;;;4923035;29;20057;-86
2023/04/26 01:01:45;;;;;;;1.38;0.40;;;3.80;95.80;;;;;;4938478;29;20066;-85
2023/04/26 01:04:13;;;;;;;0.00;0.00;;;3.30;95.50;;;;;;4922398;29;20048;-85
2023/04/26 01:06:40;;;;;;;0.00;0.00;;;3.50;96.20;;;;;;4938342;29;20079;-85
2023/04/26 01:09:11;;;;;;;0.00;0.00;;;3.30;96.60;;;;;;4922217;29;20114;-85
2023/04/26 01:11:37;;;;;;;0.00;0.00;;;3.80;96.70;;;;;;4923074;29;20079;-85
2023/04/26 01:14:07;;;;;;;0.00;0.00;;;3.50;96.50;;;;;;4937851;29;20047;-85
2023/04/26 01:16:34;;;;;;;0.00;0.00;;;3.50;96.10;;;;;;4938658;29;20066;-85
2023/04/26 01:19:26;;;;;;;0.00;0.00;;;4.20;96.70;;;;;;4937715;29;20039;-85
2023/04/26 01:21:54;;;;;;;0.00;0.00;;;3.80;97.00;;;;;;4934752;29;20059;-85
2023/04/26 01:24:20;;;;;;;0.00;0.00;;;3.60;96.20;;;;;;4937778;29;20090;-85
2023/04/26 01:26:55;;;;;;;0.00;0.00;;;4.10;95.50;;;;;;4938220;29;20087;-85
2023/04/26 01:29:23;;;;;;;0.00;0.00;;;3.70;96.20;;;;;;4937251;29;20051;-86
2023/04/26 01:31:51;;;;;;;0.00;0.00;;;3.70;96.00;;;;;;4937681;29;20555;-85
2023/04/26 01:34:19;;;;;;;0.00;0.00;;;3.70;97.10;;;;;;4954287;29;20056;-85
2023/04/26 01:36:45;;;;;;;0.00;0.00;;;4.10;97.10;;;;;;4921480;29;20373;-85
2023/04/26 01:39:13;;;;;;;0.00;0.00;;;3.80;95.60;;;;;;4906780;29;20098;-85
2023/04/26 01:41:39;;;;;;;0.00;0.00;;;3.80;94.80;;;;;;4921688;29;20134;-85
2023/04/26 01:44:04;;;;;;;0.00;0.00;;;3.80;94.90;;;;;;4922119;29;20487;-86
2023/04/26 01:46:32;;;;;;;0.10;0.00;;;3.80;94.30;;;;;;4921158;29;20047;-85
2023/04/26 01:48:58;;;;;;;0.00;0.00;;;3.70;93.80;;;;;;4921475;29;20071;-85
2023/04/26 01:51:24;;;;;;;0.00;0.00;;;3.90;95.30;;;;;;4905639;29;20055;-85
2023/04/26 01:53:50;;;;;;;0.00;0.00;;;3.80;94.70;;;;;;4937172;29;20417;-85
2023/04/26 01:56:18;;;;;;;0.00;0.00;;;3.80;94.40;;;;;;4906302;29;20103;-84
2023/04/26 01:58:46;;;;;;;0.00;0.00;;;3.90;94.20;;;;;;4921145;29;20059;-84
2023/04/26 02:01:12;;;;;;;6.72;0.08;;;4.40;94.30;;;;;;4921037;29;20060;-85
2023/04/26 02:03:38;;;;;;;0.25;0.25;;;4.00;94.20;;;;;;4921844;29;20047;-85
2023/04/26 02:06:03;;;;;;;0.00;0.00;;;3.70;94.80;;;;;;4936548;29;20480;-85
2023/04/26 02:08:32;;;;;;;0.00;0.00;;;3.60;94.70;;;;;;4937145;29;20063;-86
2023/04/26 02:10:58;;;;;;;0.00;0.00;;;3.80;95.20;;;;;;4920934;29;20051;-85
2023/04/26 02:13:24;;;;;;;0.00;0.00;;;4.20;95.20;;;;;;4921030;29;20044;-85
2023/04/26 02:15:50;;;;;;;0.00;0.00;;;3.50;94.70;;;;;;4920602;29;20048;-85
2023/04/26 02:18:16;;;;;;;0.22;0.13;;;3.40;94.80;;;;;;4905301;29;20061;-85
2023/04/26 02:20:43;;;;;;;0.00;0.00;;;3.40;94.40;;;;;;4904908;29;20048;-84
2023/04/26 02:23:10;;;;;;;0.35;0.00;;;3.40;94.80;;;;;;4936430;29;20055;-85
2023/04/26 02:25:36;;;;;;;0.57;0.00;;;4.30;95.40;;;;;;4936556;29;20055;-85
2023/04/26 02:28:05;;;;;;;0.20;0.00;;;3.30;95.70;;;;;;4936861;29;20122;-85
2023/04/26 02:30:31;;;;;;;0.00;0.00;;;3.20;95.70;;;;;;4920745;29;20134;-85
2023/04/26 02:33:01;;;;;;;0.00;0.00;;;3.80;95.70;;;;;;4936472;29;20161;-85
2023/04/26 02:35:26;;;;;;;0.00;0.00;;;3.20;96.10;;;;;;4936623;29;20058;-84
2023/04/26 02:37:52;;;;;;;0.00;0.00;;;3.20;96.20;;;;;;4920888;29;20055;-85
2023/04/26 02:40:26;;;;;;;0.00;0.00;;;3.20;96.60;;;;;;4920598;29;20051;-84
2023/04/26 02:42:54;;;;;;;0.00;0.00;;;3.30;96.50;;;;;;4920063;29;20122;-85
2023/04/26 02:45:20;;;;;;;0.00;0.00;;;3.50;95.60;;;;;;4920168;29;20054;-85
2023/04/26 02:47:45;;;;;;;0.00;0.00;;;3.50;96.10;;;;;;4935849;29;20051;-85
2023/04/26 02:50:11;;;;;;;0.00;0.00;;;3.30;96.20;;;;;;4920224;29;20043;-85
2023/04/26 02:52:40;;;;;;;0.00;0.00;;;3.30;96.30;;;;;;4920493;29;20106;-85
2023/04/26 02:55:07;;;;;;;0.00;0.00;;;4.00;96.80;;;;;;4936246;29;20056;-85
2023/04/26 02:57:32;;;;;;;0.00;0.00;;;3.30;96.50;;;;;;4935672;29;20097;-85
2023/04/26 02:59:58;;;;;;;0.00;0.00;;;3.20;95.80;;;;;;4920458;29;20080;-85
2023/04/26 03:02:24;;;;;;;0.00;0.00;;;3.40;96.30;;;;;;4919367;29;20475;-85
2023/04/26 03:04:51;;;;;;;0.10;0.05;;;3.30;96.80;;;;;;4920295;29;20055;-84
2023/04/26 03:07:19;;;;;;;1.75;0.75;;;3.20;96.70;;;;;;4919974;29;20082;-85
2023/04/26 03:09:45;;;;;;;0.00;0.00;;;3.20;96.20;;;;;;4919811;29;20504;-85
2023/04/26 03:12:11;;;;;;;0.10;0.00;;;3.80;95.60;;;;;;4920978;29;20062;-85
2023/04/26 03:14:36;;;;;;;0.00;0.00;;;3.20;95.10;;;;;;4936765;29;20048;-85
2023/04/26 03:17:05;;;;;;;0.00;0.00;;;3.60;95.00;;;;;;4936401;29;20544;-85
2023/04/26 03:19:33;;;;;;;1.65;0.40;;;3.10;96.00;;;;;;4920057;29;20056;-85
2023/04/26 03:21:58;;;;;;;0.00;0.00;;;3.10;96.10;;;;;;4935791;29;20051;-85
2023/04/26 03:24:27;;;;;;;0.10;0.10;;;3.10;96.90;;;;;;4919643;29;20532;-85
2023/04/26 03:26:56;;;;;;;0.00;0.00;;;3.50;96.80;;;;;;4919845;29;20404;-85
2023/04/26 03:29:22;;;;;;;0.00;0.00;;;3.60;96.90;;;;;;4935807;29;20052;-85
2023/04/26 03:31:48;;;;;;;0.00;0.00;;;3.00;96.30;;;;;;4919284;29;20047;-85
2023/04/26 03:34:14;;;;;;;0.00;0.00;;;3.00;96.30;;;;;;4919850;29;20056;-85
2023/04/26 03:36:39;;;;;;;0.00;0.00;;;3.50;96.30;;;;;;4904027;29;20040;-85
2023/04/26 03:39:05;;;;;;;0.00;0.00;;;3.30;96.30;;;;;;4920230;29;20099;-85
2023/04/26 03:41:34;;;;;;;0.03;0.00;;;3.50;97.10;;;;;;4919949;29;20051;-85
2023/04/26 03:44:00;;;;;;;0.00;0.00;;;2.50;97.20;;;;;;4919723;29;20051;-84
2023/04/26 03:46:29;;;;;;;0.00;0.00;;;3.10;97.40;;;;;;4935728;29;20523;-85
2023/04/26 03:48:54;;;;;;;0.00;0.00;;;3.50;97.50;;;;;;4889459;29;20052;-85
2023/04/26 03:51:20;;;;;;;0.10;0.05;;;2.80;96.80;;;;;;4904737;29;20048;-85
2023/04/26 03:53:49;;;;;;;0.00;0.00;;;2.80;97.00;;;;;;4920096;29;20082;-85
2023/04/26 03:56:15;;;;;;;0.00;0.00;;;2.80;97.20;;;;;;4919764;29;20106;-85
2023/04/26 03:58:45;;;;;;;0.00;0.00;;;2.80;96.90;;;;;;4935556;29;20400;-85
2023/04/26 04:01:11;;;;;;;0.00;0.00;;;2.80;97.10;;;;;;4935022;29;20052;-85
2023/04/26 04:03:36;;;;;;;0.00;0.00;;;2.80;96.50;;;;;;4888093;29;20187;-84
2023/04/26 04:06:04;;;;;;;0.00;0.00;;;2.90;96.80;;;;;;4904111;29;20043;-85
2023/04/26 04:08:30;;;;;;;0.00;0.00;;;2.80;96.90;;;;;;4904010;29;20040;-85
2023/04/26 04:10:56;;;;;;;0.00;0.00;;;2.80;96.60;;;;;;4934885;29;20052;-85
2023/04/26 04:13:22;;;;;;;0.00;0.00;;;2.90;96.70;;;;;;4937144;29;20126;-85
2023/04/26 04:15:48;;;;;;;0.00;0.00;;;2.70;97.50;;;;;;4922877;29;20492;-85
2023/04/26 04:18:14;;;;;;;0.00;0.00;;;3.30;97.50;;;;;;4939414;29;20472;-85
2023/04/26 04:20:40;;;;;;;0.00;0.00;;;3.30;97.50;;;;;;4907642;29;20055;-84
2023/04/26 04:23:06;;;;;;;0.00;0.00;;;2.70;97.20;;;;;;4891847;29;20059;-85
2023/04/26 04:25:33;;;;;;;0.00;0.00;;;2.70;97.60;;;;;;4922483;29;20559;-85
2023/04/26 04:28:00;;;;;;;0.00;0.00;;;2.70;97.60;;;;;;4907801;29;20490;-84
2023/04/26 04:30:28;;;;;;;0.10;0.10;;;2.70;97.80;;;;;;4923521;29;20055;-85
2023/04/26 04:32:54;;;;;;;0.80;0.17;;;2.70;97.70;;;;;;4922991;29;20400;-85
2023/04/26 04:35:21;;;;;;;0.00;0.00;;;2.80;97.50;;;;;;4891385;29;20090;-85
2023/04/26 04:37:49;;;;;;;0.00;0.00;;;2.80;97.30;;;;;;4906630;29;20512;-85
2023/04/26 04:40:14;;;;;;;0.00;0.00;;;3.00;97.10;;;;;;4939361;29;20127;-85
2023/04/26 04:42:43;;;;;;;0.00;0.00;;;2.80;96.60;;;;;;4922407;29;20472;-85
2023/04/26 04:45:09;;;;;;;0.00;0.00;;;2.80;97.10;;;;;;4907137;29;20094;-86
2023/04/26 04:47:38;;;;;;;0.00;0.00;;;2.80;96.80;;;;;;4922520;29;20080;-86
2023/04/26 04:50:08;;;;;;;0.00;0.00;;;2.80;96.70;;;;;;4922532;29;20381;-85
2023/04/26 04:52:34;;;;;;;0.10;0.10;;;2.80;97.40;;;;;;4922583;29;20044;-85
2023/04/26 04:55:00;;;;;;;0.00;0.00;;;3.00;97.90;;;;;;4922703;29;20087;-84
2023/04/26 04:57:28;;;;;;;0.00;0.00;;;3.10;97.40;;;;;;4922350;29;20524;-85
2023/04/26 04:59:54;;;;;;;0.00;0.00;;;2.80;97.70;;;;;;4938074;29;20389;-84
2023/04/26 05:02:20;;;;;;;0.00;0.00;;;3.00;97.80;;;;;;4922142;29;20090;-85
2023/04/26 05:04:46;;;;;;;0.00;0.00;;;2.90;97.80;;;;;;4922030;29;20055;-85
2023/04/26 05:07:14;;;;;;;0.00;0.00;;;3.60;98.20;;;;;;4953619;29;20047;-85
2023/04/26 05:09:41;;;;;;;0.00;0.00;;;3.20;97.80;;;;;;4921438;29;20488;-85
2023/04/26 05:12:08;;;;;;;0.10;0.10;;;3.50;97.80;;;;;;4938638;29;20403;-85
2023/04/26 05:14:34;;;;;;;0.00;0.00;;;3.10;97.10;;;;;;4921967;29;20111;-85
2023/04/26 05:17:04;;;;;;;0.32;0.00;;;3.40;97.80;;;;;;4922381;29;20040;-85
2023/04/26 05:19:33;;;;;;;0.00;0.00;;;3.20;97.40;;;;;;4922131;29;20055;-85
2023/04/26 05:22:02;;;;;;;0.00;0.00;;;3.20;97.70;;;;;;4922659;29;20098;-85
2023/04/26 05:24:30;;;;;;;0.15;0.00;;;3.30;98.60;;;;;;4920472;29;20103;-85
2023/04/26 05:26:59;;;;;;;0.00;0.00;;;3.30;98.10;;;;;;4906018;29;20051;-84
2023/04/26 05:29:30;;;;;;;0.00;0.00;;;3.40;98.60;;;;;;4905724;29;20564;-85
2023/04/26 05:31:59;;;;;;;0.00;0.00;;;3.50;98.00;;;;;;4921760;29;20520;-85
2023/04/26 05:34:25;;;;;;;0.52;0.00;;;3.60;98.40;;;;;;4906450;29;20103;-85
2023/04/26 05:36:51;;;;;;;0.00;0.00;;;3.70;98.70;;;;;;4921138;29;20106;-85
2023/04/26 05:39:19;;;;;;;0.10;0.10;;;3.70;97.70;;;;;;4905774;29;20087;-85
2023/04/26 05:41:45;;;;;;;0.00;0.00;;;4.00;97.10;;;;;;4937045;29;20529;-85
2023/04/26 05:44:12;;;;;;;0.15;0.15;;;3.80;98.20;;;;;;4922083;29;20051;-84
2023/04/26 05:46:38;;;;;;;0.30;0.10;;;3.80;98.00;;;;;;4921184;29;20047;-84
2023/04/26 05:49:04;;;;;;;0.00;0.00;;;3.90;97.80;;;;;;4905872;29;20055;-85
2023/04/26 05:51:35;;;;;;;0.00;0.00;;;4.80;98.30;;;;;;4921486;29;20052;-85
2023/04/26 05:54:01;;;;;;;0.00;0.00;;;4.00;97.60;;;;;;4937587;29;20098;-85
2023/04/26 05:56:27;;;;;;;1.30;0.00;;;4.10;98.00;;;;;;4937106;29;20051;-84
2023/04/26 05:58:53;;;;;;;0.00;0.00;;;4.10;97.70;;;;;;4936390;29;20087;-85
2023/04/26 06:01:18;;;;;;;0.00;0.00;;;4.60;98.00;;;;;;4936956;29;20060;-84
2023/04/26 06:03:49;;;;;;;0.00;0.00;;;4.90;99.00;;;;;;4921559;29;20055;-87
2023/04/26 06:06:14;;;;;;;0.00;0.00;;;4.90;96.90;;;;;;4921587;29;20066;-85
2023/04/26 06:08:41;;;;;;;0.00;0.00;;;5.10;97.90;;;;;;4921363;29;20052;-85
2023/04/26 06:11:10;;;;;;;0.00;0.00;;;5.30;98.20;;;;;;4921856;29;20054;-86
2023/04/26 06:13:36;;;;;;;0.00;0.00;;;5.50;97.50;;;;;;4921817;29;20068;-83
2023/04/26 06:16:01;;;;;;;0.00;0.00;;;5.60;97.30;;;;;;4921102;29;20047;-85
2023/04/26 06:18:30;;;;;;;0.05;0.05;;;5.70;94.30;;;;;;4922184;29;20499;-85
2023/04/26 06:20:56;;;;;;;0.00;0.00;;;5.80;94.50;;;;;;4937247;29;20047;-84
2023/04/26 06:23:22;;;;;;;0.00;0.00;;;5.90;95.10;;;;;;4953072;29;20055;-84
2023/04/26 06:25:47;;;;;;;0.00;0.00;;;6.20;94.00;;;;;;4905206;29;20503;-82
2023/04/26 06:28:13;;;;;;;0.55;0.20;;;6.20;91.90;;;;;;4936844;29;20047;-84
2023/04/26 06:30:39;;;;;;;0.05;0.05;;;6.30;93.60;;;;;;4920905;29;20083;-83
2023/04/26 06:33:05;;;;;;;0.75;0.20;;;6.30;92.80;;;;;;4936248;29;20118;-85
2023/04/26 06:35:30;;;;;;;0.10;0.10;;;6.40;92.30;;;;;;4920547;29;20052;-84
2023/04/26 06:37:56;;;;;;;0.00;0.00;;;6.40;92.60;;;;;;4920911;29;20139;-85
2023/04/26 06:40:22;;;;;;;0.00;0.00;;;6.50;90.10;;;;;;4920310;29;20493;-84
2023/04/26 06:42:48;;;;;;;0.10;0.10;;;6.50;90.40;;;;;;4936076;29;20110;-86
2023/04/26 06:45:14;;;;;;;0.57;0.50;;;6.60;92.70;;;;;;4935733;29;20058;-82
2023/04/26 06:47:40;;;;;;;0.00;0.00;;;6.60;90.90;;;;;;4904160;29;20039;-83
2023/04/26 06:50:06;;;;;;;0.00;0.00;;;6.70;91.30;;;;;;4919655;29;20464;-82
2023/04/26 06:52:32;;;;;;;0.00;0.00;;;6.80;89.30;;;;;;4919802;29;20051;-83
2023/04/26 06:55:02;;;;;;;0.03;0.00;;;7.20;92.80;;;;;;4919572;29;20044;-84
2023/04/26 06:57:27;;;;;;;0.00;0.00;;;8.00;90.80;;;;;;4935555;29;20059;-84
2023/04/26 06:59:53;;;;;;;0.10;0.05;;;8.60;75.60;;;;;;4904092;29;20044;-83
2023/04/26 07:02:19;;;;;;;0.00;0.00;;;9.30;76.30;;;;;;4903782;29;20497;-83
2023/04/26 07:04:45;;;;;;;0.00;0.00;;;10.20;50.10;;;;;;4935573;29;20056;-86
2023/04/26 07:07:11;;;;;;;0.00;0.00;;;10.90;26.80;;;;;;4904599;29;20480;-83
2023/04/26 07:09:37;;;;;;;0.10;0.10;;;11.50;4.30;;;;;;4920160;29;20056;-84
2023/04/26 07:12:03;;;;;;;0.00;0.00;;;12.20;1.00;;;;;;4903927;29;20055;-83
2023/04/26 07:14:28;;;;;;;0.00;0.00;;;12.30;1.00;;;;;;4904074;29;20043;-84
2023/04/26 07:16:54;;;;;;;1.00;0.20;;;12.10;1.00;;;;;;4904340;29;20499;-86
2023/04/26 07:19:26;;;;;;;0.00;0.00;;;12.20;1.00;;;;;;4922196;29;20065;-86
2023/04/26 07:21:52;;;;;;;0.00;0.00;;;12.20;1.00;;;;;;4904302;29;20138;-86
2023/04/26 07:24:18;;;;;;;0.03;0.00;;;12.10;1.00;;;;;;4936260;29;20047;-87
2023/04/26 07:26:45;;;;;;;0.00;0.00;;;12.00;1.00;;;;;;4936005;29;20134;-86
2023/04/26 07:29:14;;;;;;;0.00;0.00;;;11.80;1.00;;;;;;4905046;29;20056;-87
2023/04/26 07:31:40;;;;;;;0.00;0.00;;;11.80;1.00;;;;;;4936234;29;20052;-85
2023/04/26 07:34:10;;;;;;;0.00;0.00;;;12.00;1.00;;;;;;4920605;29;20083;-85
2023/04/26 07:36:36;;;;;;;0.00;0.00;;;11.90;1.00;;;;;;4935399;29;20071;-86
2023/04/26 07:39:04;;;;;;;0.00;0.00;;;11.80;1.00;;;;;;4919998;29;20056;-86
2023/04/26 07:41:30;;;;;;;0.00;0.00;;;11.90;1.00;;;;;;4920301;29;20079;-86
2023/04/26 07:43:56;;;;;;;0.00;0.00;;;11.70;1.00;;;;;;4919620;29;20066;-85
2023/04/26 07:46:24;;;;;;;0.00;0.00;;;11.70;1.00;;;;;;4904124;29;20051;-86
2023/04/26 07:48:50;;;;;;;5.95;0.55;;;12.00;1.00;;;;;;4937609;29;20051;-84
2023/04/26 07:51:16;;;;;;;0.00;0.00;;;11.90;1.00;;;;;;4907595;29;20051;-84
2023/04/26 07:53:42;;;;;;;0.00;0.00;;;12.00;1.00;;;;;;4939853;29;20070;-85
2023/04/26 07:56:08;;;;;;;0.10;0.10;;;12.20;1.00;;;;;;4908329;29;20048;-85
2023/04/26 07:58:40;;;;;;;0.17;0.17;;;12.00;99.90;;;;;;4938596;29;20051;-85
2023/04/26 08:01:07;;;;;;;0.00;0.00;;;11.80;99.90;;;;;;4923200;29;20059;-84
2023/04/26 08:03:33;;;;;;;0.00;0.00;;;11.60;99.90;;;;;;4923497;29;20070;-85
2023/04/26 08:05:59;;;;;;;0.00;0.00;;;11.70;99.90;;;;;;4923186;29;20044;-85
2023/04/26 08:08:25;;;;;;;0.00;0.00;;;11.70;99.90;;;;;;4923224;29;20051;-85
2023/04/26 08:10:52;;;;;;;0.00;0.00;;;11.50;99.90;;;;;;4938645;29;20055;-84
2023/04/26 08:13:18;;;;;;;0.00;0.00;;;11.40;99.90;;;;;;4923101;29;20048;-85
2023/04/26 08:15:44;;;;;;;0.55;0.55;;;11.20;99.90;;;;;;4923812;29;20231;-85
2023/04/26 08:18:10;;;;;;;0.00;0.00;;;11.00;99.90;;;;;;4938944;29;20043;-84
2023/04/26 08:20:35;;;;;;;0.00;0.00;;;11.10;99.90;;;;;;4939543;29;20047;-85
2023/04/26 08:23:01;;;;;;;0.00;0.00;;;11.00;99.90;;;;;;4891323;29;20048;-86
2023/04/26 08:25:27;;;;;;;0.00;0.00;;;11.20;99.90;;;;;;4907249;29;20409;-82
2023/04/26 08:27:56;;;;;;;0.00;0.00;;;11.20;99.90;;;;;;4923176;29;20453;-84
2023/04/26 08:30:25;;;;;;;0.00;0.00;;;11.40;99.90;;;;;;4938876;29;20051;-83
2023/04/26 08:32:51;;;;;;;0.00;0.00;;;11.40;99.90;;;;;;4907477;29;20047;-84
2023/04/26 08:35:17;;;;;;;0.00;0.00;;;11.50;99.90;;;;;;4922549;29;20102;-83
2023/04/26 08:37:43;;;;;;;0.00;0.00;;;11.50;99.90;;;;;;4922649;29;20051;-87
2023/04/26 08:40:09;;;;;;;0.00;0.00;;;11.40;99.90;;;;;;4938919;29;20055;-86
2023/04/26 08:42:42;;;;;;;0.00;0.00;;;11.30;99.90;;;;;;4922525;29;20605;-86
2023/04/26 08:45:12;;;;;;;0.00;0.00;;;11.50;99.90;;;;;;4937946;29;20063;-87
2023/04/26 08:47:49;;;;;;;0.20;0.20;;;11.50;99.90;;;;;;4907308;29;20044;-87
2023/04/26 08:50:19;;;;;;;0.00;0.00;;;11.50;99.90;;;;;;4922594;29;20497;-86
2023/04/26 08:52:47;;;;;;;0.93;0.70;;;11.40;99.90;;;;;;4922424;29;20560;-86
2023/04/26 08:55:17;;;;;;;0.10;0.00;;;11.20;99.90;;;;;;4923069;29;20081;-86
2023/04/26 08:57:46;;;;;;;0.00;0.00;;;11.00;99.90;;;;;;4938387;29;20061;-87
2023/04/26 09:00:18;;;;;;;0.00;0.00;;;10.80;99.90;;;;;;4923852;29;20138;-86
2023/04/26 09:02:50;;;;;;;0.00;0.00;;;10.70;99.90;;;;;;4925526;29;20055;-87
2023/04/26 09:05:26;;;;;;;0.00;0.00;;;10.60;99.90;;;;;;4923381;29;20107;-86
2023/04/26 09:08:02;;;;;;;0.00;0.00;;;10.40;1.00;;;;;;4923921;29;20047;-86
2023/04/26 09:10:29;;;;;;;0.00;0.00;;;10.30;1.00;;;;;;4922180;29;20094;-87
2023/04/26 09:12:55;;;;;;;0.00;0.00;;;10.30;1.00;;;;;;4939066;29;20123;-86
2023/04/26 09:15:25;;;;;;;0.00;0.00;;;10.20;1.00;;;;;;4921413;29;20043;-87
2023/04/26 09:17:52;;;;;;;0.00;0.00;;;10.10;1.00;;;;;;4922485;29;20048;-86
2023/04/26 09:20:21;;;;;;;0.00;0.00;;;10.10;1.00;;;;;;4937833;29;20067;-86
2023/04/26 09:22:50;;;;;;;0.00;0.00;;;10.00;1.00;;;;;;4921870;29;20059;-87
2023/04/26 09:25:27;;;;;;;0.82;0.50;;;10.00;1.00;;;;;;4922567;29;20111;-87
2023/04/26 09:27:53;;;;;;;0.00;0.00;;;10.00;1.00;;;;;;4922486;29;20164;-87
2023/04/26 09:30:21;;;;;;;0.00;0.00;;;10.00;1.00;;;;;;4922023;29;20381;-86
2023/04/26 09:32:56;;;;;;;0.03;0.03;;;10.00;1.00;;;;;;4922269;29;20062;-87
2023/04/26 09:35:33;;;;;;;0.00;0.00;;;10.00;1.00;;;;;;4922305;29;20067;-87
2023/04/26 09:38:13;;;;;;;0.00;0.00;;;10.00;1.00;;;;;;4921803;29;20484;-87
2023/04/26 09:40:48;;;;;;;0.03;0.03;;;10.20;1.00;;;;;;4921744;29;20060;-87
2023/04/26 09:43:21;;;;;;;0.00;0.00;;;10.20;1.00;;;;;;4938394;29;20368;-87
2023/04/26 09:45:50;;;;;;;0.00;0.00;;;10.30;1.00;;;;;;4921978;29;20052;-87
2023/04/26 09:48:21;;;;;;;0.00;0.00;;;10.40;1.00;;;;;;4921763;29;20056;-86
2023/04/26 09:50:51;;;;;;;0.90;0.32;;;10.50;99.90;;;;;;4921992;29;20090;-87
2023/04/26 09:53:40;;;;;;;0.57;0.47;;;10.60;99.90;;;;;;4921176;29;20051;-86
2023/04/26 09:56:14;;;;;;;0.00;0.00;;;10.70;99.90;;;;;;4921477;29;20090;-87
2023/04/26 09:58:46;;;;;;;0.25;0.10;;;10.70;99.90;;;;;;4921314;29;20382;-86
2023/04/26 10:01:15;;;;;;;0.00;0.00;;;10.80;99.90;;;;;;4921268;29;20059;-86
2023/04/26 10:03:43;;;;;;;0.10;0.05;;;11.00;99.90;;;;;;4921471;29;20094;-86
2023/04/26 10:06:11;;;;;;;0.55;0.00;;;11.00;99.90;;;;;;4936978;29;20086;-86
2023/04/26 10:08:37;;;;;;;0.00;0.00;;;11.20;99.90;;;;;;4937016;29;20115;-86
2023/04/26 10:11:12;;;;;;;0.00;0.00;;;11.50;99.90;;;;;;4920568;29;20056;-85
2023/04/26 10:13:41;;;;;;;0.20;0.20;;;12.00;99.90;;;;;;4921225;29;20052;-86
2023/04/26 10:16:08;;;;;;;0.00;0.00;;;12.40;99.90;;;;;;4920672;29;20487;-85
2023/04/26 10:18:34;;;;;;;0.00;0.00;;;12.60;99.90;;;;;;4936461;29;20062;-86
2023/04/26 10:21:16;;;;;;;0.00;0.00;;;12.90;99.90;;;;;;4921154;29;20074;-86
2023/04/26 10:23:43;;;;;;;0.00;0.00;;;13.10;99.90;;;;;;4937011;29;20055;-85
2023/04/26 10:26:50;;;;;;;0.00;0.00;;;13.40;99.90;;;;;;4936276;29;20074;-86
2023/04/26 10:29:16;;;;;;;0.15;0.10;;;13.60;99.90;;;;;;4918162;29;20394;-86
2023/04/26 10:32:03;;;;;;;0.00;0.00;;;13.70;99.90;;;;;;4904980;29;20468;-86
2023/04/26 10:34:30;;;;;;;0.00;0.00;;;13.90;99.90;;;;;;4936397;29;20060;-85
2023/04/26 10:37:10;;;;;;;0.00;0.00;;;14.00;99.90;;;;;;4920319;29;20058;-85
2023/04/26 10:39:36;;;;;;;0.00;0.00;;;14.20;99.90;;;;;;4921495;29;20091;-86
2023/04/26 10:42:31;;;;;;;0.00;0.00;;;14.40;54.80;;;;;;4921199;29;20373;-86
2023/04/26 10:45:20;;;;;;;13.32;0.00;;;14.50;1.00;;;;;;4921664;29;20051;-86
2023/04/26 10:47:46;;;;;;;1.13;0.47;;;14.60;1.00;;;;;;4936156;29;20511;-86
2023/04/26 10:50:15;;;;;;;0.00;0.00;;;14.50;99.90;;;;;;4936333;29;20056;-87
2023/04/26 10:52:59;;;;;;;0.00;0.00;;;14.50;99.90;;;;;;4920299;29;20044;-86
2023/04/26 10:55:39;;;;;;;0.00;0.00;;;14.40;99.90;;;;;;4921382;29;20079;-86
2023/04/26 10:58:27;;;;;;;0.00;0.00;;;14.20;99.90;;;;;;4904723;29;20059;-87
2023/04/26 11:01:06;;;;;;;0.00;0.00;;;13.70;99.90;;;;;;4921085;29;20056;-86
2023/04/26 11:03:34;;;;;;;0.00;0.00;;;13.10;64.70;;;;;;4936373;29;20056;-85
2023/04/26 11:06:04;;;;;;;0.00;0.00;;;12.70;99.90;;;;;;4888780;29;20091;-85
2023/04/26 11:08:35;;;;;;;0.00;0.00;;;12.10;99.90;;;;;;4935735;29;20051;-86
2023/04/26 11:11:09;;;;;;;0.00;0.00;;;11.60;99.90;;;;;;4920086;29;20111;-87
2023/04/26 11:13:39;;;;;;;0.00;0.00;;;11.20;99.90;;;;;;4920413;29;20444;-87
2023/04/26 11:16:12;;;;;;;0.75;0.35;;;10.90;99.90;;;;;;4920350;29;20310;-87
2023/04/26 11:18:43;;;;;;;0.00;0.00;;;10.70;1.00;;;;;;4920407;29;20058;-86
2023/04/26 11:21:28;;;;;;;0.00;0.00;;;10.50;46.20;;;;;;4921410;29;20083;-86
2023/04/26 11:23:54;;;;;;;0.55;0.45;;;10.30;99.90;;;;;;4920062;29;20059;-86
2023/04/26 11:26:20;;;;;;;0.00;0.00;;;10.10;99.90;;;;;;4920708;29;20039;-85
2023/04/26 11:28:48;;;;;;;0.00;0.00;;;9.90;99.90;;;;;;4936394;29;20059;-85
2023/04/26 11:31:14;;;;;;;0.20;0.00;;;9.90;99.90;;;;;;4919970;29;20098;-85
2023/04/26 11:33:40;;;;;;;0.00;0.00;;;9.80;99.90;;;;;;4936037;29;20051;-85
2023/04/26 11:36:06;;;;;;;0.00;0.00;;;9.80;99.90;;;;;;4919889;29;20062;-86
2023/04/26 11:38:33;;;;;;;0.00;0.00;;;9.80;99.90;;;;;;4919204;29;20503;-85
2023/04/26 11:41:00;;;;;;;0.00;0.00;;;9.80;99.90;;;;;;4935670;29;20396;-85
2023/04/26 11:43:44;;;;;;;0.00;0.00;;;9.70;99.90;;;;;;4935957;29;20055;-85
2023/04/26 11:46:10;;;;;;;0.00;0.00;;;9.80;99.90;;;;;;4918559;29;20126;-86
2023/04/26 11:48:37;;;;;;;1.40;0.75;;;9.80;99.90;;;;;;4935904;29;20130;-86
2023/04/26 11:51:05;;;;;;;0.00;0.00;;;9.90;99.90;;;;;;4935615;29;20052;-85
2023/04/26 11:53:40;;;;;;;0.10;0.10;;;9.80;99.90;;;;;;4920618;29;20051;-85
2023/04/26 11:56:20;;;;;;;0.20;0.05;;;9.90;99.90;;;;;;4935832;29;20047;-86
2023/04/26 11:58:52;;;;;;;0.00;0.00;;;9.90;99.90;;;;;;4935513;29;20400;-86
2023/04/26 12:01:23;;;;;;;0.00;0.00;;;10.00;99.90;;;;;;4920557;29;20107;-86
2023/04/26 12:03:53;;;;;;;0.00;0.00;;;10.20;99.90;;;;;;4919840;29;20054;-86
2023/04/26 12:06:24;;;;;;;0.20;0.20;;;10.50;99.90;;;;;;4919905;29;20551;-86
2023/04/26 12:08:51;;;;;;;0.00;0.00;;;10.80;99.90;;;;;;4919700;29;20047;-86
2023/04/26 12:11:17;;;;;;;0.10;0.10;;;11.20;99.90;;;;;;4904060;29;20051;-86
2023/04/26 12:13:47;;;;;;;0.08;0.03;;;11.60;99.90;;;;;;4920189;29;20055;-86
2023/04/26 12:16:16;;;;;;;0.00;0.00;;;11.70;99.90;;;;;;4919538;29;20052;-86
2023/04/26 12:18:50;;;;;;;0.00;0.00;;;11.80;99.90;;;;;;4920053;29;20083;-86
2023/04/26 12:21:16;;;;;;;0.00;0.00;;;11.70;99.90;;;;;;4920840;29;20481;-85
2023/04/26 12:23:46;;;;;;;0.00;0.00;;;11.60;99.90;;;;;;4920895;29;20055;-87
2023/04/26 12:26:19;;;;;;;0.00;0.00;;;11.50;99.90;;;;;;4936569;29;20051;-87
2023/04/26 12:28:47;;;;;;;0.43;0.00;;;11.60;99.90;;;;;;4921287;29;20056;-87
2023/04/26 12:31:13;;;;;;;0.00;0.00;;;11.60;99.90;;;;;;4935908;29;20126;-87
2023/04/26 12:33:39;;;;;;;0.00;0.00;;;11.60;99.40;;;;;;4920254;29;20084;-87
2023/04/26 12:36:10;;;;;;;0.30;0.00;;;11.70;99.90;;;;;;4907880;29;20126;-87
2023/04/26 12:38:36;;;;;;;0.17;0.17;;;11.60;99.90;;;;;;4922606;29;20087;-87
2023/04/26 12:41:04;;;;;;;2.85;0.00;;;11.50;49.10;;;;;;4923395;29;20047;-87
2023/04/26 12:43:36;;;;;;;0.10;0.00;;;11.40;37.00;;;;;;4939843;29;20051;-87
2023/04/26 12:46:02;;;;;;;0.00;0.00;;;11.40;46.50;;;;;;4892310;29;20047;-87
2023/04/26 12:48:32;;;;;;;0.00;0.00;;;11.40;22.90;;;;;;4922519;29;20051;-87
2023/04/26 12:50:59;;;;;;;0.00;0.00;;;11.30;30.00;;;;;;4907409;29;20052;-88
2023/04/26 12:53:25;;;;;;;0.00;0.00;;;11.20;1.00;;;;;;4922676;29;20079;-87
2023/04/26 12:55:53;;;;;;;0.00;0.00;;;11.20;1.00;;;;;;4922850;29;20138;-88
2023/04/26 12:58:22;;;;;;;0.00;0.00;;;11.20;1.00;;;;;;4938836;29;20191;-87
2023/04/26 13:00:50;;;;;;;0.00;0.00;;;11.10;8.80;;;;;;4923367;29;20067;-88